Time;durP1;ratioP1;P1;durP2;ratioP2;P2;SDS_P1;SDS_P2;PMS_P1;PMS_P2;Temp;Humidity;BMP_temperature;BMP_pressure;BME280_temperature;BME280_humidity;BME280_pressure;Samples;Min_cycle;Max_cycle;Signal;HPM_P1;HPM_P2
2024/01/15 00:02:09;;;;;;;11.18;1.67;;;2.60;92.20;;;;;;5017729;28;20127;-48
2024/01/15 00:04:40;;;;;;;4.55;1.35;;;2.50;92.40;;;;;;5015181;28;20133;-48
2024/01/15 00:07:09;;;;;;;16.88;3.22;;;2.40;92.60;;;;;;5014443;28;20045;-50
2024/01/15 00:09:36;;;;;;;7.63;1.63;;;2.40;92.80;;;;;;5014060;28;20053;-48
2024/01/15 00:12:03;;;;;;;9.48;2.40;;;2.40;93.00;;;;;;5013582;28;20477;-48
2024/01/15 00:14:29;;;;;;;7.75;1.50;;;2.40;93.00;;;;;;4998928;28;20069;-47
2024/01/15 00:16:56;;;;;;;9.23;2.67;;;2.40;93.30;;;;;;5012109;28;20417;-47
2024/01/15 00:19:23;;;;;;;10.32;1.88;;;2.40;93.40;;;;;;5025112;28;20428;-48
2024/01/15 00:21:53;;;;;;;9.77;1.85;;;2.40;93.40;;;;;;5010673;28;20038;-49
2024/01/15 00:24:20;;;;;;;;;;;2.50;93.60;;;;;;4993528;28;20034;-47
2024/01/15 00:26:47;;;;;;;10.95;2.25;;;2.50;93.60;;;;;;5010570;28;20288;-49
2024/01/15 00:29:13;;;;;;;5.30;1.55;;;2.40;93.60;;;;;;5010850;28;20034;-48
2024/01/15 00:31:40;;;;;;;8.70;1.48;;;2.50;93.70;;;;;;5010576;28;20052;-48
2024/01/15 00:34:06;;;;;;;12.00;2.42;;;2.50;93.70;;;;;;5011137;28;20058;-53
2024/01/15 00:36:33;;;;;;;13.23;2.22;;;2.50;93.70;;;;;;5010525;28;20395;-51
2024/01/15 00:39:00;;;;;;;11.60;2.72;;;2.50;93.80;;;;;;5059246;27;20113;-49
2024/01/15 00:41:27;;;;;;;14.38;4.32;;;2.50;93.80;;;;;;5010476;28;20018;-49
2024/01/15 00:43:54;;;;;;;19.00;4.47;;;2.50;93.90;;;;;;5013587;28;20299;-48
2024/01/15 00:46:23;;;;;;;14.48;2.38;;;2.50;94.00;;;;;;5017396;28;20160;-48
2024/01/15 00:48:50;;;;;;;11.00;2.70;;;2.70;93.80;;;;;;5011053;28;20440;-48
2024/01/15 00:51:17;;;;;;;9.77;1.73;;;2.70;93.10;;;;;;5029570;28;20051;-47
2024/01/15 00:53:44;;;;;;;13.27;1.90;;;2.60;92.40;;;;;;5010068;28;20030;-48
2024/01/15 00:56:11;;;;;;;7.97;1.75;;;2.60;91.60;;;;;;5014203;28;20345;-47
2024/01/15 00:58:39;;;;;;;9.00;2.22;;;2.60;91.10;;;;;;5022931;28;20041;-48
2024/01/15 01:01:09;;;;;;;9.93;2.20;;;2.60;90.90;;;;;;5019811;28;20025;-49
2024/01/15 01:03:35;;;;;;;8.10;1.38;;;2.70;90.90;;;;;;5010418;28;20026;-47
2024/01/15 01:06:02;;;;;;;11.07;2.28;;;2.70;91.00;;;;;;5009876;28;20030;-48
2024/01/15 01:08:31;;;;;;;11.73;2.22;;;2.70;91.10;;;;;;5010141;28;20506;-47
2024/01/15 01:10:57;;;;;;;11.57;2.67;;;2.70;91.40;;;;;;5009917;28;20369;-47
2024/01/15 01:13:24;;;;;;;15.90;2.28;;;2.70;91.70;;;;;;5009888;28;20117;-46
2024/01/15 01:15:50;;;;;;;19.75;3.28;;;2.70;91.70;;;;;;5009646;28;20080;-47
2024/01/15 01:18:17;;;;;;;16.90;2.40;;;2.80;92.00;;;;;;5011534;28;20391;-50
2024/01/15 01:20:44;;;;;;;16.63;2.88;;;2.90;92.10;;;;;;5010072;28;20018;-49
2024/01/15 01:23:14;;;;;;;15.80;2.53;;;3.00;92.10;;;;;;5024966;27;20535;-53
2024/01/15 01:25:41;;;;;;;15.55;2.90;;;2.90;91.70;;;;;;5056558;27;20192;-52
2024/01/15 01:28:08;;;;;;;15.23;2.70;;;2.80;91.50;;;;;;5009996;28;20086;-50
2024/01/15 01:30:34;;;;;;;21.05;4.95;;;2.70;92.00;;;;;;5010291;28;20434;-52
2024/01/15 01:33:00;;;;;;;13.98;3.17;;;2.90;92.50;;;;;;5010069;28;20030;-52
2024/01/15 01:35:26;;;;;;;16.92;4.43;;;2.90;92.40;;;;;;4993327;28;20034;-51
2024/01/15 01:37:53;;;;;;;15.00;3.55;;;2.90;92.10;;;;;;5024881;27;20026;-53
2024/01/15 01:40:23;;;;;;;22.17;3.38;;;2.90;91.60;;;;;;5037443;27;20537;-56
2024/01/15 01:42:49;;;;;;;18.70;3.13;;;2.90;91.30;;;;;;5009561;28;20026;-55
2024/01/15 01:45:16;;;;;;;15.70;3.22;;;3.00;91.30;;;;;;5009205;28;20079;-55
2024/01/15 01:47:44;;;;;;;26.42;5.22;;;3.10;91.20;;;;;;5009833;28;20026;-55
2024/01/15 01:50:10;;;;;;;18.15;4.68;;;3.00;90.90;;;;;;5009637;28;20033;-52
2024/01/15 01:52:37;;;;;;;26.60;4.75;;;3.10;90.80;;;;;;5009871;28;20086;-50
2024/01/15 01:55:06;;;;;;;16.05;3.30;;;3.20;90.50;;;;;;5009709;28;20052;-57
2024/01/15 01:57:34;;;;;;;18.60;4.47;;;3.20;90.30;;;;;;5009730;28;20026;-50
2024/01/15 02:00:03;;;;;;;18.67;3.67;;;3.30;90.30;;;;;;5009555;28;20033;-53
2024/01/15 02:02:32;;;;;;;23.40;6.72;;;3.30;90.20;;;;;;5020707;28;20029;-50
2024/01/15 02:04:58;;;;;;;26.23;4.32;;;3.40;90.10;;;;;;5015331;28;20109;-50
2024/01/15 02:07:26;;;;;;;23.30;5.22;;;3.40;89.20;;;;;;5024782;28;20022;-52
2024/01/15 02:09:52;;;;;;;24.08;6.90;;;3.40;88.50;;;;;;4992611;28;20037;-50
2024/01/15 02:12:22;;;;;;;26.65;5.78;;;3.40;87.00;;;;;;4992162;28;20051;-50
2024/01/15 02:14:49;;;;;;;13.15;3.17;;;3.50;83.20;;;;;;5009053;28;20022;-48
2024/01/15 02:17:15;;;;;;;18.92;5.53;;;3.50;82.80;;;;;;5009454;28;20443;-50
2024/01/15 02:19:41;;;;;;;26.38;4.88;;;3.60;82.50;;;;;;5009918;28;20034;-49
2024/01/15 02:22:08;;;;;;;16.45;3.40;;;3.60;82.80;;;;;;5011419;28;20063;-48
2024/01/15 02:24:34;;;;;;;20.15;4.32;;;3.70;82.50;;;;;;5015970;28;20496;-48
2024/01/15 02:27:00;;;;;;;19.48;3.90;;;3.70;82.80;;;;;;5008814;28;20102;-46
2024/01/15 02:29:27;;;;;;;22.63;4.57;;;3.80;83.20;;;;;;5009149;28;20063;-46
2024/01/15 02:31:54;;;;;;;23.00;4.00;;;3.70;83.60;;;;;;5009363;28;20323;-47
2024/01/15 02:34:20;;;;;;;20.35;3.90;;;3.80;83.40;;;;;;5008887;28;20030;-46
2024/01/15 02:36:46;;;;;;;22.73;4.70;;;3.80;83.20;;;;;;5009233;28;20045;-49
2024/01/15 02:39:13;;;;;;;17.58;4.78;;;3.80;83.20;;;;;;5043938;27;20029;-45
2024/01/15 02:41:40;;;;;;;23.92;4.30;;;3.90;82.90;;;;;;4991653;28;20037;-48
2024/01/15 02:44:07;;;;;;;17.55;5.03;;;3.90;82.70;;;;;;5008639;28;20049;-46
2024/01/15 02:46:34;;;;;;;29.70;5.38;;;3.90;83.00;;;;;;5008556;28;20418;-52
2024/01/15 02:49:00;;;;;;;20.23;4.13;;;3.80;84.30;;;;;;5008456;28;20036;-59
2024/01/15 02:51:26;;;;;;;18.00;5.20;;;3.70;84.50;;;;;;5008890;28;20033;-60
2024/01/15 02:53:53;;;;;;;26.48;4.30;;;3.60;84.90;;;;;;5008687;28;20036;-57
2024/01/15 02:56:20;;;;;;;22.30;4.85;;;3.50;85.60;;;;;;5008547;28;20097;-55
2024/01/15 02:58:49;;;;;;;32.58;8.85;;;3.50;85.60;;;;;;5008680;28;20029;-56
2024/01/15 03:01:21;;;;;;;25.17;5.00;;;3.50;85.10;;;;;;5008668;28;20422;-53
2024/01/15 03:03:49;;;;;;;21.45;3.47;;;3.40;84.40;;;;;;5008785;28;20041;-54
2024/01/15 03:06:16;;;;;;;20.80;4.25;;;3.30;84.30;;;;;;5008764;28;20047;-52
2024/01/15 03:08:43;;;;;;;15.00;4.55;;;3.40;84.30;;;;;;5008566;28;20049;-50
2024/01/15 03:11:10;;;;;;;27.27;7.40;;;3.30;84.80;;;;;;5008290;28;20137;-51
2024/01/15 03:13:37;;;;;;;23.55;5.18;;;3.40;84.80;;;;;;4993227;28;20072;-50
2024/01/15 03:16:05;;;;;;;23.17;4.45;;;3.40;84.60;;;;;;5019316;28;20026;-52
2024/01/15 03:18:32;;;;;;;14.45;3.78;;;3.50;83.80;;;;;;5013195;28;20033;-52
2024/01/15 03:21:01;;;;;;;15.57;3.95;;;3.70;81.10;;;;;;5002238;28;20028;-47
2024/01/15 03:23:30;;;;;;;16.50;3.13;;;3.80;80.90;;;;;;5008447;28;20022;-49
2024/01/15 03:25:57;;;;;;;28.92;8.20;;;3.80;81.30;;;;;;4991010;28;20681;-47
2024/01/15 03:28:23;;;;;;;19.52;5.57;;;3.70;81.90;;;;;;5007945;28;20029;-48
2024/01/15 03:30:54;;;;;;;18.85;3.72;;;3.70;82.60;;;;;;4990743;28;20026;-49
2024/01/15 03:33:21;;;;;;;18.70;4.13;;;3.70;83.10;;;;;;5008066;28;20569;-47
2024/01/15 03:35:49;;;;;;;22.77;4.05;;;3.60;83.20;;;;;;5008288;28;20532;-47
2024/01/15 03:38:15;;;;;;;18.05;3.17;;;3.50;83.60;;;;;;5041139;28;20034;-47
2024/01/15 03:40:41;;;;;;;19.50;3.70;;;3.50;83.80;;;;;;5110691;28;20037;-46
2024/01/15 03:43:12;;;;;;;18.95;3.17;;;3.50;83.70;;;;;;5009852;28;20038;-47
2024/01/15 03:45:39;;;;;;;17.75;3.28;;;3.50;83.80;;;;;;5007768;28;20054;-45
2024/01/15 03:48:05;;;;;;;20.58;3.80;;;3.60;83.80;;;;;;5007845;28;20155;-48
2024/01/15 03:50:32;;;;;;;17.92;3.30;;;3.70;83.80;;;;;;5007789;28;20105;-48
2024/01/15 03:53:01;;;;;;;24.45;5.00;;;3.70;84.60;;;;;;4990323;28;20030;-45
2024/01/15 03:55:28;;;;;;;28.85;4.72;;;3.70;85.30;;;;;;5007685;28;20466;-46
2024/01/15 03:57:55;;;;;;;25.73;5.43;;;3.70;86.20;;;;;;4990573;28;20030;-46
2024/01/15 04:00:22;;;;;;;19.13;3.75;;;3.70;86.50;;;;;;5010286;28;20083;-46
2024/01/15 04:02:49;;;;;;;20.33;3.72;;;3.70;86.90;;;;;;5002300;28;20029;-45
2024/01/15 04:05:16;;;;;;;18.20;5.22;;;3.70;86.90;;;;;;5025765;28;20018;-46
2024/01/15 04:07:46;;;;;;;18.40;3.63;;;3.70;87.30;;;;;;5011424;28;20481;-45
2024/01/15 04:10:12;;;;;;;16.63;5.20;;;3.70;87.40;;;;;;5011792;28;20034;-45
2024/01/15 04:12:46;;;;;;;12.75;2.72;;;3.70;86.40;;;;;;5010999;28;20078;-45
2024/01/15 04:15:13;;;;;;;15.63;3.60;;;3.70;84.60;;;;;;5010457;28;20042;-46
2024/01/15 04:17:40;;;;;;;23.00;4.30;;;3.70;84.50;;;;;;5010951;28;20083;-46
2024/01/15 04:20:06;;;;;;;18.83;3.70;;;3.70;84.40;;;;;;5010855;28;20050;-46
2024/01/15 04:22:34;;;;;;;13.45;2.30;;;3.60;84.40;;;;;;5010340;28;20203;-48
2024/01/15 04:25:03;;;;;;;12.05;2.50;;;3.50;84.60;;;;;;5023319;28;20040;-48
2024/01/15 04:27:29;;;;;;;;;;;3.40;84.90;;;;;;5011176;28;20046;-46
2024/01/15 04:29:55;;;;;;;9.77;2.40;;;3.40;85.10;;;;;;5010594;28;19916;-47
2024/01/15 04:32:21;;;;;;;16.55;2.53;;;3.30;85.40;;;;;;5010183;28;20422;-45
2024/01/15 04:34:49;;;;;;;12.60;2.53;;;3.30;85.70;;;;;;5010424;28;20045;-46
2024/01/15 04:37:17;;;;;;;12.05;2.60;;;3.20;85.80;;;;;;5010195;28;20080;-48
2024/01/15 04:39:44;;;;;;;17.67;2.50;;;3.20;86.00;;;;;;5113466;27;20054;-49
2024/01/15 04:42:11;;;;;;;7.85;2.50;;;3.10;86.30;;;;;;5010655;28;20032;-50
2024/01/15 04:44:39;;;;;;;11.50;2.45;;;3.10;86.60;;;;;;5009970;28;20105;-50
2024/01/15 04:47:05;;;;;;;22.67;2.80;;;3.10;87.20;;;;;;5010270;28;20033;-53
2024/01/15 04:49:32;;;;;;;12.23;3.70;;;3.10;87.20;;;;;;5010391;28;20041;-56
2024/01/15 04:51:59;;;;;;;17.63;2.95;;;3.10;87.40;;;;;;5020102;27;20037;-53
2024/01/15 04:54:25;;;;;;;9.10;2.60;;;3.10;87.70;;;;;;5020502;28;20140;-55
2024/01/15 04:56:55;;;;;;;16.50;4.25;;;3.20;87.70;;;;;;5010396;28;20117;-57
2024/01/15 04:59:22;;;;;;;;;;;3.10;88.00;;;;;;5002911;28;20335;-55
2024/01/15 05:01:48;;;;;;;20.70;2.30;;;3.00;88.30;;;;;;5016024;28;19970;-55
2024/01/15 05:04:15;;;;;;;12.80;2.75;;;3.10;88.70;;;;;;5010634;28;20071;-51
2024/01/15 05:06:42;;;;;;;9.38;2.58;;;3.10;88.60;;;;;;5010287;28;20176;-51
2024/01/15 05:09:13;;;;;;;15.73;3.20;;;3.10;88.60;;;;;;5010631;28;20421;-58
2024/01/15 05:11:39;;;;;;;20.52;3.47;;;3.10;88.70;;;;;;5010051;28;20030;-55
2024/01/15 05:14:06;;;;;;;14.70;2.97;;;3.00;88.90;;;;;;5010130;28;20045;-57
2024/01/15 05:16:32;;;;;;;16.05;3.95;;;3.00;89.20;;;;;;5010221;28;20427;-54
2024/01/15 05:18:58;;;;;;;11.50;2.13;;;3.00;89.20;;;;;;5016020;28;20165;-58
2024/01/15 05:21:25;;;;;;;14.63;2.33;;;3.00;88.50;;;;;;5010102;28;20133;-56
2024/01/15 05:23:52;;;;;;;15.23;2.80;;;3.00;86.70;;;;;;5010125;28;20100;-56
2024/01/15 05:26:18;;;;;;;14.73;2.97;;;3.00;86.20;;;;;;5010162;28;20062;-57
2024/01/15 05:28:44;;;;;;;11.85;2.10;;;3.10;86.00;;;;;;5009735;28;20070;-55
2024/01/15 05:31:11;;;;;;;18.85;3.28;;;3.20;86.20;;;;;;5009233;28;20072;-56
2024/01/15 05:33:38;;;;;;;12.70;2.85;;;3.20;86.40;;;;;;5009416;28;20030;-56
2024/01/15 05:36:04;;;;;;;12.38;2.28;;;3.20;86.50;;;;;;5009843;28;20041;-58
2024/01/15 05:38:30;;;;;;;10.05;2.20;;;3.20;87.10;;;;;;5055355;27;20019;-57
2024/01/15 05:40:58;;;;;;;11.02;1.92;;;3.20;87.20;;;;;;5009627;28;20040;-52
2024/01/15 05:43:25;;;;;;;13.85;2.67;;;3.20;87.30;;;;;;5013617;28;20513;-54
2024/01/15 05:45:50;;;;;;;18.10;5.88;;;3.10;87.60;;;;;;5011322;28;20119;-53
2024/01/15 05:48:16;;;;;;;9.43;1.73;;;3.00;88.00;;;;;;5009009;28;20030;-56
2024/01/15 05:50:43;;;;;;;8.10;1.20;;;2.90;88.00;;;;;;5009213;28;20030;-51
2024/01/15 05:53:12;;;;;;;12.18;2.25;;;2.90;87.50;;;;;;5027989;28;20112;-51
2024/01/15 05:55:41;;;;;;;7.95;1.50;;;2.90;87.00;;;;;;5013813;28;20057;-53
2024/01/15 05:58:08;;;;;;;5.22;1.48;;;2.80;87.20;;;;;;4994373;28;20466;-55
2024/01/15 06:00:35;;;;;;;5.85;1.88;;;2.80;87.30;;;;;;5013995;28;20037;-49
2024/01/15 06:03:05;;;;;;;7.15;1.77;;;2.70;87.60;;;;;;5013638;28;20030;-50
2024/01/15 06:05:32;;;;;;;13.45;2.47;;;2.70;88.20;;;;;;4992039;28;20442;-53
2024/01/15 06:07:59;;;;;;;8.85;1.80;;;2.70;88.80;;;;;;5009649;28;20063;-51
2024/01/15 06:10:25;;;;;;;11.75;1.38;;;2.70;89.50;;;;;;5008621;28;20101;-50
2024/01/15 06:12:52;;;;;;;13.57;1.90;;;2.70;89.70;;;;;;4994807;28;20037;-53
2024/01/15 06:15:22;;;;;;;10.40;1.85;;;2.70;89.50;;;;;;5009071;28;20025;-50
2024/01/15 06:17:48;;;;;;;12.85;4.35;;;2.70;89.40;;;;;;5009023;28;20313;-50
2024/01/15 06:20:15;;;;;;;10.27;1.65;;;2.70;89.30;;;;;;5008979;28;20428;-52
2024/01/15 06:22:42;;;;;;;10.27;2.33;;;2.70;89.20;;;;;;5009112;28;20420;-51
2024/01/15 06:25:09;;;;;;;8.07;1.73;;;2.60;89.20;;;;;;5016879;28;20033;-58
2024/01/15 06:27:36;;;;;;;9.23;2.35;;;2.70;89.40;;;;;;5016706;28;20057;-58
2024/01/15 06:30:05;;;;;;;14.40;1.98;;;2.60;89.60;;;;;;5017867;28;20358;-59
2024/01/15 06:32:32;;;;;;;10.05;1.70;;;2.60;90.20;;;;;;5019210;28;20038;-55
2024/01/15 06:34:58;;;;;;;12.35;3.42;;;2.50;90.50;;;;;;5014820;28;20033;-56
2024/01/15 06:37:24;;;;;;;10.13;2.05;;;2.50;90.70;;;;;;5011146;28;20029;-54
2024/01/15 06:39:51;;;;;;;11.38;2.22;;;2.50;90.70;;;;;;5017125;27;20317;-58
2024/01/15 06:42:18;;;;;;;14.30;2.40;;;2.50;90.80;;;;;;5009437;28;20037;-57
2024/01/15 06:44:43;;;;;;;8.07;1.85;;;2.50;90.90;;;;;;4996138;28;20063;-57
2024/01/15 06:47:09;;;;;;;15.30;1.85;;;2.50;90.90;;;;;;5009079;28;20101;-58
2024/01/15 06:49:35;;;;;;;9.05;1.60;;;2.60;90.60;;;;;;4990320;28;20029;-58
2024/01/15 06:52:02;;;;;;;7.35;2.25;;;2.60;89.70;;;;;;5007636;28;20030;-56
2024/01/15 06:54:32;;;;;;;8.40;1.95;;;2.60;89.30;;;;;;5008724;28;20026;-59
2024/01/15 06:56:59;;;;;;;5.95;0.70;;;2.50;89.10;;;;;;5018271;28;20018;-54
2024/01/15 06:59:25;;;;;;;5.43;0.80;;;2.50;88.20;;;;;;5010115;28;20022;-52
2024/01/15 07:01:52;;;;;;;8.27;0.90;;;2.50;86.90;;;;;;5008249;28;20037;-54
2024/01/15 07:04:17;;;;;;;8.07;1.25;;;2.50;86.00;;;;;;5013811;28;20075;-50
2024/01/15 07:06:44;;;;;;;7.03;3.13;;;2.60;85.20;;;;;;5016218;28;20034;-53
2024/01/15 07:09:10;;;;;;;4.35;1.10;;;2.60;85.60;;;;;;5016016;28;20534;-56
2024/01/15 07:11:37;;;;;;;12.75;1.50;;;2.60;86.10;;;;;;5017211;28;20135;-53
2024/01/15 07:14:04;;;;;;;5.95;1.55;;;2.70;87.10;;;;;;4990378;28;20065;-53
2024/01/15 07:16:30;;;;;;;8.95;3.15;;;2.70;87.40;;;;;;5007228;28;20033;-52
2024/01/15 07:18:56;;;;;;;10.27;1.80;;;2.80;87.50;;;;;;5009707;28;20025;-50
2024/01/15 07:21:25;;;;;;;9.02;1.92;;;2.70;87.50;;;;;;5008622;28;20041;-56
2024/01/15 07:23:52;;;;;;;7.20;1.70;;;2.80;87.70;;;;;;5008173;28;20054;-55
2024/01/15 07:26:19;;;;;;;9.57;2.60;;;2.70;88.50;;;;;;5020418;28;20654;-55
2024/01/15 07:28:45;;;;;;;11.02;1.77;;;2.70;88.90;;;;;;5020027;28;20033;-53
2024/01/15 07:31:13;;;;;;;8.00;1.83;;;2.60;89.50;;;;;;5039582;28;20042;-56
2024/01/15 07:33:39;;;;;;;9.20;1.48;;;2.60;89.80;;;;;;5015946;27;20050;-55
2024/01/15 07:36:07;;;;;;;10.00;1.45;;;2.50;90.10;;;;;;5047900;27;20474;-52
2024/01/15 07:38:32;;;;;;;8.27;1.50;;;2.40;90.40;;;;;;5011851;28;20034;-51
2024/01/15 07:41:00;;;;;;;4.93;1.10;;;2.40;90.60;;;;;;5053982;27;20026;-50
2024/01/15 07:43:28;;;;;;;8.27;1.25;;;2.40;90.50;;;;;;4995117;28;20033;-52
2024/01/15 07:45:54;;;;;;;7.53;1.27;;;2.30;90.10;;;;;;5020163;27;20083;-51
2024/01/15 07:48:21;;;;;;;7.85;2.00;;;2.30;90.00;;;;;;5009225;28;20030;-50
2024/01/15 07:50:48;;;;;;;3.55;1.20;;;2.30;89.60;;;;;;5005772;28;20037;-49
2024/01/15 07:53:15;;;;;;;7.45;1.45;;;2.30;89.30;;;;;;4992426;28;20034;-50
2024/01/15 07:55:42;;;;;;;9.57;2.05;;;2.30;89.30;;;;;;4991805;28;20023;-52
2024/01/15 07:58:08;;;;;;;6.65;1.45;;;2.30;89.40;;;;;;4993051;28;20030;-49
2024/01/15 08:00:35;;;;;;;8.60;1.83;;;2.30;89.50;;;;;;5010714;28;20023;-51
2024/01/15 08:03:02;;;;;;;7.38;1.65;;;2.30;89.50;;;;;;5000687;28;20030;-49
2024/01/15 08:05:29;;;;;;;8.57;1.58;;;2.40;89.70;;;;;;4992684;28;20424;-50
2024/01/15 08:07:56;;;;;;;9.43;1.75;;;2.40;89.80;;;;;;5001741;28;20076;-48
2024/01/15 08:10:22;;;;;;;9.32;2.33;;;2.40;89.70;;;;;;5011437;28;20101;-48
2024/01/15 08:12:48;;;;;;;11.98;2.75;;;2.40;89.70;;;;;;4998283;28;20104;-50
2024/01/15 08:15:15;;;;;;;9.48;1.95;;;2.40;89.80;;;;;;4980123;28;20042;-50
2024/01/15 08:17:42;;;;;;;9.90;2.92;;;2.30;89.90;;;;;;4991641;28;20030;-50
2024/01/15 08:20:10;;;;;;;16.65;3.42;;;2.30;89.70;;;;;;4991646;28;20114;-49
2024/01/15 08:22:39;;;;;;;14.07;3.08;;;2.30;89.70;;;;;;4995231;28;20037;-48
2024/01/15 08:25:06;;;;;;;8.60;1.98;;;2.40;89.70;;;;;;4998027;28;20109;-48
2024/01/15 08:27:31;;;;;;;15.45;2.65;;;2.30;89.80;;;;;;5058543;28;20032;-50
2024/01/15 08:29:57;;;;;;;10.95;2.15;;;2.30;89.70;;;;;;5102412;28;20750;-49
2024/01/15 08:32:27;;;;;;;7.57;2.17;;;2.40;89.40;;;;;;4981560;28;20226;-50
2024/01/15 08:34:53;;;;;;;12.60;1.73;;;2.30;89.30;;;;;;4997243;28;20531;-48
2024/01/15 08:37:19;;;;;;;10.18;2.17;;;2.40;89.40;;;;;;5028371;28;20472;-48
2024/01/15 08:39:45;;;;;;;11.02;3.85;;;2.40;89.30;;;;;;5005389;28;20091;-47
2024/01/15 08:42:12;;;;;;;8.23;1.80;;;2.40;89.10;;;;;;4991807;28;20062;-56
2024/01/15 08:44:40;;;;;;;10.60;2.05;;;2.20;88.70;;;;;;4994253;28;20126;-59
2024/01/15 08:47:06;;;;;;;17.08;3.47;;;2.20;89.10;;;;;;4996944;27;20054;-64
2024/01/15 08:49:33;;;;;;;11.75;1.67;;;2.10;89.20;;;;;;4997670;28;20048;-65
2024/01/15 08:52:01;;;;;;;10.93;2.45;;;2.10;89.70;;;;;;5009920;28;20054;-65
2024/01/15 08:54:28;;;;;;;11.85;3.38;;;2.00;89.90;;;;;;4977607;28;20026;-64
2024/01/15 08:56:55;;;;;;;13.15;2.92;;;1.90;90.30;;;;;;5004925;28;20023;-63
2024/01/15 08:59:25;;;;;;;7.72;2.45;;;1.90;90.50;;;;;;4996131;28;20023;-62
2024/01/15 09:01:57;;;;;;;7.63;1.80;;;1.80;90.60;;;;;;4998389;28;20113;-61
2024/01/15 09:04:24;;;;;;;7.68;2.10;;;1.80;90.90;;;;;;5003942;28;20022;-61
2024/01/15 09:06:51;;;;;;;8.45;2.42;;;1.80;91.00;;;;;;4982957;28;20022;-58
2024/01/15 09:09:21;;;;;;;11.10;1.52;;;1.80;91.20;;;;;;4994395;28;20026;-59
2024/01/15 09:11:52;;;;;;;10.90;2.20;;;1.70;91.30;;;;;;5038557;28;20022;-59
2024/01/15 09:14:18;;;;;;;7.60;1.95;;;1.80;91.50;;;;;;4991381;28;20490;-59
2024/01/15 09:16:49;;;;;;;7.90;1.58;;;1.80;91.40;;;;;;4992005;28;20101;-59
2024/01/15 09:19:16;;;;;;;12.60;3.25;;;1.80;91.30;;;;;;4997320;28;20452;-57
2024/01/15 09:21:42;;;;;;;8.05;1.52;;;1.80;91.20;;;;;;5002058;28;20026;-59
2024/01/15 09:24:11;;;;;;;9.60;1.48;;;1.90;91.30;;;;;;4996357;28;20431;-58
2024/01/15 09:26:40;;;;;;;9.13;1.65;;;1.90;91.20;;;;;;5002706;28;20450;-59
2024/01/15 09:29:07;;;;;;;13.85;3.75;;;1.90;91.20;;;;;;4995924;28;20672;-61
2024/01/15 09:31:34;;;;;;;12.60;1.67;;;1.90;91.10;;;;;;4990307;28;20029;-61
2024/01/15 09:34:02;;;;;;;9.18;1.30;;;1.90;91.10;;;;;;4995502;28;20062;-61
2024/01/15 09:36:29;;;;;;;5.95;2.03;;;2.00;91.30;;;;;;4996422;28;20524;-62
2024/01/15 09:38:57;;;;;;;6.00;1.83;;;2.00;91.30;;;;;;5029175;28;20038;-62
2024/01/15 09:41:25;;;;;;;8.63;1.67;;;2.00;91.40;;;;;;4995626;28;20121;-62
2024/01/15 09:43:56;;;;;;;6.43;1.90;;;2.10;91.50;;;;;;5000288;28;20083;-62
2024/01/15 09:46:25;;;;;;;7.22;1.70;;;2.20;91.50;;;;;;5030879;28;20630;-63
2024/01/15 09:48:52;;;;;;;16.63;2.47;;;2.20;91.50;;;;;;5017127;27;20029;-64
2024/01/15 09:51:19;;;;;;;8.57;1.65;;;2.20;91.50;;;;;;5026011;27;20041;-64
2024/01/15 09:53:48;;;;;;;7.43;1.00;;;2.20;91.50;;;;;;5000147;28;20037;-63
2024/01/15 09:56:17;;;;;;;7.05;1.23;;;2.20;91.40;;;;;;5004176;28;20370;-63
2024/01/15 09:58:45;;;;;;;7.95;0.88;;;2.10;91.30;;;;;;5021018;28;20112;-62
2024/01/15 10:01:12;;;;;;;4.10;0.90;;;2.00;91.00;;;;;;5004530;28;20095;-62
2024/01/15 10:03:40;;;;;;;6.60;1.17;;;1.90;90.90;;;;;;5020490;28;20698;-61
2024/01/15 10:06:08;;;;;;;3.88;1.23;;;1.80;91.10;;;;;;4999837;28;20030;-60
2024/01/15 10:08:41;;;;;;;6.60;1.67;;;1.90;91.30;;;;;;5012493;28;20022;-60
2024/01/15 10:11:07;;;;;;;7.72;1.40;;;1.90;91.30;;;;;;5024387;27;20041;-59
2024/01/15 10:13:34;;;;;;;6.82;2.53;;;1.90;91.30;;;;;;5060912;27;20031;-60
2024/01/15 10:16:03;;;;;;;4.38;1.20;;;2.10;91.20;;;;;;5072025;27;20022;-58
2024/01/15 10:18:30;;;;;;;6.47;1.48;;;2.10;91.00;;;;;;5021890;28;20112;-59
2024/01/15 10:20:58;;;;;;;9.98;1.90;;;2.20;91.00;;;;;;5017648;28;20362;-59
2024/01/15 10:23:26;;;;;;;7.70;2.00;;;2.30;91.00;;;;;;5026225;27;20369;-60
2024/01/15 10:25:53;;;;;;;9.40;1.58;;;2.40;90.80;;;;;;4993641;28;20033;-60
2024/01/15 10:28:20;;;;;;;5.22;1.15;;;2.40;90.80;;;;;;4993003;28;20095;-59
2024/01/15 10:30:52;;;;;;;5.45;1.00;;;2.50;90.60;;;;;;5070073;27;20026;-60
2024/01/15 10:33:25;;;;;;;1.63;0.70;;;2.40;90.30;;;;;;5040344;27;20025;-60
2024/01/15 10:35:57;;;;;;;5.85;1.30;;;2.20;90.10;;;;;;5021903;27;20029;-59
2024/01/15 10:38:24;;;;;;;5.47;1.75;;;2.10;90.50;;;;;;5050871;27;20050;-61
2024/01/15 10:40:57;;;;;;;4.93;1.63;;;2.00;90.50;;;;;;5017641;27;20093;-62
2024/01/15 10:43:28;;;;;;;9.13;4.13;;;2.00;90.80;;;;;;5014906;27;20037;-62
2024/01/15 10:45:59;;;;;;;7.88;2.42;;;2.00;91.10;;;;;;5011973;28;20077;-63
2024/01/15 10:48:26;;;;;;;14.15;6.07;;;2.00;91.10;;;;;;4996859;28;20026;-63
2024/01/15 10:50:53;;;;;;;2.58;1.23;;;2.10;91.10;;;;;;4989505;28;20504;-63
2024/01/15 10:53:21;;;;;;;5.55;1.90;;;2.10;91.00;;;;;;5063542;28;20041;-63
2024/01/15 10:55:48;;;;;;;6.63;2.60;;;2.20;91.20;;;;;;4997524;28;20022;-63
2024/01/15 10:58:20;;;;;;;5.50;1.58;;;2.30;91.00;;;;;;4990439;28;20030;-62
2024/01/15 11:00:47;;;;;;;5.97;2.35;;;2.50;91.10;;;;;;4990172;28;20409;-62
2024/01/15 11:03:14;;;;;;;6.35;2.40;;;2.70;91.10;;;;;;4991275;28;20026;-62
2024/01/15 11:05:44;;;;;;;10.13;3.13;;;3.00;90.90;;;;;;5065167;28;20121;-62
2024/01/15 11:08:13;;;;;;;5.40;1.55;;;3.20;90.40;;;;;;5000347;28;20022;-62
2024/01/15 11:10:57;;;;;;;5.20;1.50;;;3.20;89.50;;;;;;5072362;28;20505;-63
2024/01/15 11:13:51;;;;;;;6.57;2.08;;;3.10;89.20;;;;;;4997492;28;20084;-63
2024/01/15 11:16:18;;;;;;;5.85;1.52;;;3.00;89.40;;;;;;5070524;28;20022;-62
2024/01/15 11:18:59;;;;;;;4.88;1.90;;;2.90;89.40;;;;;;5064363;28;20432;-62
2024/01/15 11:21:27;;;;;;;4.35;1.02;;;2.70;89.60;;;;;;4988029;28;20036;-61
2024/01/15 11:24:00;;;;;;;4.28;0.98;;;2.40;89.60;;;;;;4991955;28;20085;-62
2024/01/15 11:26:39;;;;;;;5.00;1.25;;;2.20;90.40;;;;;;5057073;28;20079;-61
2024/01/15 11:29:28;;;;;;;5.05;1.10;;;1.90;90.80;;;;;;4997396;28;20054;-61
2024/01/15 11:32:17;;;;;;;4.35;1.88;;;1.80;91.20;;;;;;5061742;28;20046;-60
2024/01/15 11:34:57;;;;;;;9.13;3.47;;;1.70;91.50;;;;;;4990844;28;20022;-60
2024/01/15 11:37:27;;;;;;;7.47;2.97;;;1.70;91.90;;;;;;4991949;28;20022;-60
2024/01/15 11:39:55;;;;;;;4.70;2.38;;;1.70;92.20;;;;;;4990847;28;20062;-60
2024/01/15 11:42:22;;;;;;;7.20;0.85;;;1.60;92.40;;;;;;4990400;28;20018;-60
2024/01/15 11:44:49;;;;;;;2.72;0.80;;;1.60;92.60;;;;;;4993300;28;20081;-59
2024/01/15 11:47:46;;;;;;;5.03;1.17;;;1.70;92.80;;;;;;5007596;28;20121;-61
2024/01/15 11:50:14;;;;;;;3.67;1.10;;;1.70;92.90;;;;;;4992881;28;20121;-60
2024/01/15 11:52:49;;;;;;;2.30;0.98;;;1.80;92.90;;;;;;5025301;28;20033;-60
2024/01/15 11:55:33;;;;;;;4.93;1.08;;;1.90;92.90;;;;;;5009382;28;20018;-61
2024/01/15 11:58:01;;;;;;;3.83;1.15;;;1.90;92.90;;;;;;5009316;28;20058;-60
2024/01/15 12:00:29;;;;;;;7.35;1.65;;;1.90;92.70;;;;;;5009386;28;20195;-61
2024/01/15 12:02:59;;;;;;;5.00;1.20;;;1.90;92.40;;;;;;5004022;28;20022;-61
2024/01/15 12:05:26;;;;;;;6.65;1.40;;;1.90;92.60;;;;;;4990087;28;20030;-60
2024/01/15 12:07:52;;;;;;;3.75;0.90;;;1.90;92.60;;;;;;5023905;28;20041;-60
2024/01/15 12:10:21;;;;;;;4.47;0.90;;;1.90;92.80;;;;;;5011993;28;20026;-60
2024/01/15 12:13:09;;;;;;;5.10;0.90;;;2.00;92.70;;;;;;4991653;28;20126;-60
2024/01/15 12:15:36;;;;;;;3.63;1.10;;;2.10;92.70;;;;;;4991117;28;20053;-60
2024/01/15 12:18:03;;;;;;;6.13;2.20;;;2.10;92.60;;;;;;5008194;28;20026;-60
2024/01/15 12:20:30;;;;;;;4.07;1.08;;;2.20;92.60;;;;;;5007968;28;20022;-60
2024/01/15 12:22:58;;;;;;;5.22;1.35;;;2.20;92.40;;;;;;5011047;28;20014;-60
2024/01/15 12:25:27;;;;;;;6.55;1.90;;;2.20;92.30;;;;;;5013158;28;20029;-60
2024/01/15 12:27:54;;;;;;;3.58;1.40;;;2.30;92.30;;;;;;5013155;27;20041;-60
2024/01/15 12:30:21;;;;;;;9.68;4.50;;;2.30;92.20;;;;;;5012382;28;20041;-58
2024/01/15 12:32:48;;;;;;;4.40;1.20;;;2.20;92.10;;;;;;5011823;28;20072;-60
2024/01/15 12:35:19;;;;;;;6.15;2.13;;;2.20;92.10;;;;;;5011836;28;20026;-60
2024/01/15 12:37:48;;;;;;;5.82;1.55;;;2.20;92.10;;;;;;5024147;27;20025;-60
2024/01/15 12:40:19;;;;;;;5.10;1.45;;;2.20;92.10;;;;;;5010696;28;20018;-59
2024/01/15 12:42:48;;;;;;;6.43;1.23;;;2.20;92.30;;;;;;5025908;27;20042;-60
2024/01/15 12:45:15;;;;;;;5.15;1.63;;;2.20;92.30;;;;;;5012003;28;20087;-60
2024/01/15 12:47:46;;;;;;;4.07;1.55;;;2.10;92.30;;;;;;5013851;27;20034;-60
2024/01/15 12:50:13;;;;;;;6.10;1.55;;;2.20;92.40;;;;;;5001392;28;20022;-60
2024/01/15 12:52:42;;;;;;;5.43;2.05;;;2.20;92.50;;;;;;5012177;27;20122;-59
2024/01/15 12:55:13;;;;;;;7.50;2.55;;;2.20;92.60;;;;;;5014746;27;20026;-59
2024/01/15 12:57:40;;;;;;;8.60;2.90;;;2.20;92.60;;;;;;5018509;28;20466;-60